createdAt,value
2022-09-26T00:04:24.169Z,10
2022-09-26T00:14:24.320Z,10
2022-09-26T00:24:24.804Z,10
2022-09-26T00:34:24.963Z,9.9
2022-09-26T00:44:25.416Z,9.9
2022-09-26T00:54:26.114Z,9.9
2022-09-26T01:04:26.738Z,10
2022-09-26T01:14:27.275Z,10
2022-09-26T01:24:27.473Z,10.1
2022-09-26T01:34:27.612Z,10.1
2022-09-26T01:54:28.938Z,10.2
2022-09-26T02:04:29.157Z,10.2
2022-09-26T02:14:29.956Z,10.2
2022-09-26T02:24:30.530Z,10.3
2022-09-26T02:44:32.501Z,10.4
2022-09-26T02:54:32.930Z,10.4
2022-09-26T03:04:33.881Z,10.5
2022-09-26T03:24:34.611Z,10.7
2022-09-26T03:34:35.520Z,10.7
2022-09-26T03:44:35.992Z,10.8
2022-09-26T03:54:37.003Z,10.8
2022-09-26T04:04:37.461Z,10.9
2022-09-26T04:24:38.754Z,10.9
2022-09-26T04:34:39.119Z,11
2022-09-26T04:44:39.750Z,11
2022-09-26T04:54:40.592Z,11
2022-09-26T05:04:41.306Z,11.1
2022-09-26T05:14:41.849Z,11.1
2022-09-26T05:24:42.659Z,11.1
2022-09-26T05:34:43.699Z,11.1
2022-09-26T05:44:44.378Z,11.2
2022-09-26T05:54:44.775Z,11.2
2022-09-26T06:04:45.027Z,11.2
2022-09-26T06:14:45.821Z,11.3
2022-09-26T06:24:46.483Z,11.4
2022-09-26T06:34:47.055Z,11.5
2022-09-26T06:44:47.983Z,11.6
2022-09-26T06:54:48.798Z,11.7
2022-09-26T07:04:49.545Z,11.8
2022-09-26T07:14:53.593Z,11.8
2022-09-26T07:24:49.510Z,11.8
2022-09-26T07:34:49.737Z,11.9
2022-09-26T07:45:24.457Z,11.9
2022-09-26T07:54:50.279Z,11.9
2022-09-26T08:04:50.325Z,12
2022-09-26T08:14:51.196Z,12
2022-09-26T08:34:52.376Z,12
2022-09-26T08:44:52.738Z,11.9
2022-09-26T09:04:54.118Z,11.6
2022-09-26T09:15:07.911Z,11.4
2022-09-26T09:24:54.531Z,11.2
2022-09-26T09:34:55.360Z,11.1
2022-09-26T09:44:56.345Z,11.2
2022-09-26T09:54:57.294Z,11.3
2022-09-26T10:04:57.421Z,11.3
2022-09-26T10:24:57.825Z,11.3
2022-09-26T10:34:58.332Z,11.3
2022-09-26T10:44:58.949Z,11.3
2022-09-26T10:54:59.484Z,11.4
2022-09-26T11:05:00.504Z,11.6
2022-09-26T11:15:01.283Z,11.9
2022-09-26T11:25:01.490Z,12.3
2022-09-26T11:35:02.117Z,12.7
2022-09-26T11:45:02.190Z,13.1
2022-09-26T11:55:02.888Z,13.4
2022-09-26T12:05:03.424Z,13.3
2022-09-26T12:15:03.640Z,13.3
2022-09-26T12:25:04.064Z,13.3
2022-09-26T12:45:05.447Z,12.8
2022-09-26T12:55:06.469Z,12.8
2022-09-26T13:05:07.481Z,13
2022-09-26T13:25:08.390Z,13.1
2022-09-26T13:35:08.820Z,13.1
2022-09-26T13:45:09.348Z,13
2022-09-26T14:05:09.765Z,12.7
2022-09-26T14:15:10.351Z,12.4
2022-09-26T14:25:11.251Z,12.3
2022-09-26T14:35:11.711Z,12.1
2022-09-26T14:45:12.229Z,11.9
2022-09-26T14:55:12.784Z,11.8
2022-09-26T15:15:13.792Z,11.7
2022-09-26T15:35:14.721Z,11.6
2022-09-26T15:45:15.724Z,11.5
2022-09-26T15:55:15.944Z,11.5
2022-09-26T16:05:16.468Z,11.4
2022-09-26T16:15:16.701Z,11.3
2022-09-26T16:25:17.297Z,11.3
2022-09-26T16:35:17.532Z,11.2
2022-09-26T16:45:17.810Z,11.2
2022-09-26T17:05:19.350Z,11.2
2022-09-26T17:15:19.655Z,11.2
2022-09-26T17:35:20.958Z,11.1
2022-09-26T17:45:21.621Z,11.1
2022-09-26T17:55:21.979Z,11.1
2022-09-26T18:05:22.252Z,11.1
2022-09-26T18:15:22.556Z,11
2022-09-26T18:25:22.850Z,11
2022-09-26T18:55:23.842Z,11
2022-09-26T19:05:24.172Z,11
2022-09-26T19:15:24.421Z,11.1
2022-09-26T19:25:24.850Z,11.2
2022-09-26T19:35:25.805Z,11.2
2022-09-26T19:45:26.600Z,11.2
2022-09-26T19:55:27.548Z,11.1
2022-09-26T20:05:28.300Z,11.1
2022-09-26T20:15:28.689Z,11.1
2022-09-26T20:25:28.930Z,11.1
2022-09-26T20:35:33.227Z,11.1
2022-09-26T20:45:30.038Z,11.1
2022-09-26T20:55:30.353Z,11.1
2022-09-26T21:05:31.282Z,11.1
2022-09-26T21:15:31.375Z,11.1
2022-09-26T21:25:31.609Z,11.1
2022-09-26T21:35:32.418Z,11.1
2022-09-26T21:55:33.889Z,11
2022-09-26T22:05:34.324Z,11
2022-09-26T22:15:34.444Z,11
2022-09-26T22:45:35.837Z,11
2022-09-26T22:55:36.564Z,11
2022-09-26T23:05:37.090Z,10.9
2022-09-26T23:25:38.250Z,10.7
2022-09-26T23:45:39.668Z,10.4
2022-09-26T23:55:40.402Z,10.3
